sensor_id;sensor_type;location;lat;lon;timestamp;P1;durP1;ratioP1;P2;durP2;ratioP2
60612;SDS011;46443;59.792;17.626;2023-02-14T00:00:40;4.20;;;1.70;;
60612;SDS011;46443;59.792;17.626;2023-02-14T00:03:07;2.70;;;1.70;;
60612;SDS011;46443;59.792;17.626;2023-02-14T00:05:33;2.47;;;1.47;;
60612;SDS011;46443;59.792;17.626;2023-02-14T00:07:59;3.47;;;1.60;;
60612;SDS011;46443;59.792;17.626;2023-02-14T00:10:25;4.23;;;1.60;;
60612;SDS011;46443;59.792;17.626;2023-02-14T00:12:51;4.17;;;1.60;;
60612;SDS011;46443;59.792;17.626;2023-02-14T00:15:17;3.10;;;1.77;;
60612;SDS011;46443;59.792;17.626;2023-02-14T00:17:47;2.97;;;1.80;;
60612;SDS011;46443;59.792;17.626;2023-02-14T00:20:13;5.60;;;1.90;;
60612;SDS011;46443;59.792;17.626;2023-02-14T00:22:39;3.27;;;1.80;;
60612;SDS011;46443;59.792;17.626;2023-02-14T00:25:05;3.20;;;1.70;;
60612;SDS011;46443;59.792;17.626;2023-02-14T00:27:31;2.37;;;1.70;;
60612;SDS011;46443;59.792;17.626;2023-02-14T00:29:57;2.77;;;1.60;;
60612;SDS011;46443;59.792;17.626;2023-02-14T00:32:27;3.97;;;2.03;;
60612;SDS011;46443;59.792;17.626;2023-02-14T00:34:53;2.90;;;1.90;;
60612;SDS011;46443;59.792;17.626;2023-02-14T00:37:19;3.53;;;1.70;;
60612;SDS011;46443;59.792;17.626;2023-02-14T00:39:45;2.57;;;1.50;;
60612;SDS011;46443;59.792;17.626;2023-02-14T00:42:11;3.00;;;1.70;;
60612;SDS011;46443;59.792;17.626;2023-02-14T00:44:38;4.10;;;1.70;;
60612;SDS011;46443;59.792;17.626;2023-02-14T00:47:04;2.57;;;1.70;;
60612;SDS011;46443;59.792;17.626;2023-02-14T00:49:30;2.60;;;1.77;;
60612;SDS011;46443;59.792;17.626;2023-02-14T00:51:56;3.67;;;1.80;;
60612;SDS011;46443;59.792;17.626;2023-02-14T00:54:22;3.67;;;1.93;;
60612;SDS011;46443;59.792;17.626;2023-02-14T00:56:48;2.00;;;1.43;;
60612;SDS011;46443;59.792;17.626;2023-02-14T00:59:14;2.17;;;1.60;;
60612;SDS011;46443;59.792;17.626;2023-02-14T01:01:40;2.00;;;1.60;;
60612;SDS011;46443;59.792;17.626;2023-02-14T01:04:07;3.00;;;1.83;;
60612;SDS011;46443;59.792;17.626;2023-02-14T01:06:33;3.17;;;1.90;;
60612;SDS011;46443;59.792;17.626;2023-02-14T01:08:59;2.27;;;1.63;;
60612;SDS011;46443;59.792;17.626;2023-02-14T01:11:25;2.97;;;1.57;;
60612;SDS011;46443;59.792;17.626;2023-02-14T01:13:53;3.10;;;1.80;;
60612;SDS011;46443;59.792;17.626;2023-02-14T01:16:20;2.53;;;1.80;;
60612;SDS011;46443;59.792;17.626;2023-02-14T01:18:46;3.30;;;1.80;;
60612;SDS011;46443;59.792;17.626;2023-02-14T01:21:17;4.93;;;1.80;;
60612;SDS011;46443;59.792;17.626;2023-02-14T01:23:44;3.05;;;1.83;;
60612;SDS011;46443;59.792;17.626;2023-02-14T01:26:10;3.60;;;1.70;;
60612;SDS011;46443;59.792;17.626;2023-02-14T01:28:36;2.77;;;1.80;;
60612;SDS011;46443;59.792;17.626;2023-02-14T01:31:07;2.83;;;1.80;;
60612;SDS011;46443;59.792;17.626;2023-02-14T01:33:33;2.50;;;1.63;;
60612;SDS011;46443;59.792;17.626;2023-02-14T01:35:59;3.20;;;1.70;;
60612;SDS011;46443;59.792;17.626;2023-02-14T01:38:25;2.73;;;1.60;;
60612;SDS011;46443;59.792;17.626;2023-02-14T01:40:51;3.37;;;1.80;;
60612;SDS011;46443;59.792;17.626;2023-02-14T01:43:17;3.87;;;1.83;;
60612;SDS011;46443;59.792;17.626;2023-02-14T01:45:43;2.37;;;1.80;;
60612;SDS011;46443;59.792;17.626;2023-02-14T01:48:09;3.37;;;1.73;;
60612;SDS011;46443;59.792;17.626;2023-02-14T01:50:37;2.20;;;1.47;;
60612;SDS011;46443;59.792;17.626;2023-02-14T01:53:08;2.92;;;1.70;;
60612;SDS011;46443;59.792;17.626;2023-02-14T01:55:37;2.57;;;1.50;;
60612;SDS011;46443;59.792;17.626;2023-02-14T01:58:08;2.88;;;1.70;;
60612;SDS011;46443;59.792;17.626;2023-02-14T02:00:36;3.83;;;1.80;;
60612;SDS011;46443;59.792;17.626;2023-02-14T02:03:22;3.03;;;1.60;;
60612;SDS011;46443;59.792;17.626;2023-02-14T02:05:50;3.23;;;1.70;;
60612;SDS011;46443;59.792;17.626;2023-02-14T02:08:17;4.47;;;1.92;;
60612;SDS011;46443;59.792;17.626;2023-02-14T02:10:43;3.08;;;1.80;;
60612;SDS011;46443;59.792;17.626;2023-02-14T02:13:17;2.77;;;1.80;;
60612;SDS011;46443;59.792;17.626;2023-02-14T02:15:56;3.28;;;1.80;;
60612;SDS011;46443;59.792;17.626;2023-02-14T02:18:26;2.38;;;1.50;;
60612;SDS011;46443;59.792;17.626;2023-02-14T02:34:26;2.90;;;1.60;;
60612;SDS011;46443;59.792;17.626;2023-02-14T02:39:45;2.70;;;1.80;;
60612;SDS011;46443;59.792;17.626;2023-02-14T02:47:24;2.10;;;1.60;;
60612;SDS011;46443;59.792;17.626;2023-02-14T02:50:15;3.13;;;1.90;;
60612;SDS011;46443;59.792;17.626;2023-02-14T02:57:53;2.80;;;1.63;;
60612;SDS011;46443;59.792;17.626;2023-02-14T03:00:21;2.42;;;1.60;;
60612;SDS011;46443;59.792;17.626;2023-02-14T03:02:48;2.75;;;1.70;;
60612;SDS011;46443;59.792;17.626;2023-02-14T03:05:33;1.85;;;1.50;;
60612;SDS011;46443;59.792;17.626;2023-02-14T03:08:00;1.95;;;1.58;;
60612;SDS011;46443;59.792;17.626;2023-02-14T03:10:27;4.22;;;1.80;;
60612;SDS011;46443;59.792;17.626;2023-02-14T03:18:25;2.47;;;1.60;;
60612;SDS011;46443;59.792;17.626;2023-02-14T03:21:17;3.28;;;1.60;;
60612;SDS011;46443;59.792;17.626;2023-02-14T03:23:53;3.72;;;1.77;;
60612;SDS011;46443;59.792;17.626;2023-02-14T03:26:32;2.30;;;1.52;;
60612;SDS011;46443;59.792;17.626;2023-02-14T03:29:15;2.75;;;1.80;;
60612;SDS011;46443;59.792;17.626;2023-02-14T03:34:34;1.92;;;1.50;;
60612;SDS011;46443;59.792;17.626;2023-02-14T03:37:05;2.95;;;1.70;;
60612;SDS011;46443;59.792;17.626;2023-02-14T03:39:38;2.63;;;1.70;;
60612;SDS011;46443;59.792;17.626;2023-02-14T03:42:14;2.38;;;1.75;;
60612;SDS011;46443;59.792;17.626;2023-02-14T03:44:41;3.92;;;1.90;;
60612;SDS011;46443;59.792;17.626;2023-02-14T03:47:12;3.33;;;1.80;;
60612;SDS011;46443;59.792;17.626;2023-02-14T03:49:40;3.35;;;1.75;;
60612;SDS011;46443;59.792;17.626;2023-02-14T03:52:07;3.08;;;1.90;;
60612;SDS011;46443;59.792;17.626;2023-02-14T03:54:34;3.75;;;1.73;;
60612;SDS011;46443;59.792;17.626;2023-02-14T03:59:30;3.03;;;1.77;;
60612;SDS011;46443;59.792;17.626;2023-02-14T04:02:42;2.13;;;1.70;;
60612;SDS011;46443;59.792;17.626;2023-02-14T04:04:46;2.00;;;1.50;;
60612;SDS011;46443;59.792;17.626;2023-02-14T04:07:15;2.50;;;1.60;;
60612;SDS011;46443;59.792;17.626;2023-02-14T04:09:41;3.40;;;1.80;;
60612;SDS011;46443;59.792;17.626;2023-02-14T04:12:08;2.45;;;1.80;;
60612;SDS011;46443;59.792;17.626;2023-02-14T04:14:34;2.25;;;1.73;;
60612;SDS011;46443;59.792;17.626;2023-02-14T04:17:01;2.42;;;1.75;;
60612;SDS011;46443;59.792;17.626;2023-02-14T04:19:45;2.55;;;1.60;;
60612;SDS011;46443;59.792;17.626;2023-02-14T04:22:13;2.75;;;1.70;;
60612;SDS011;46443;59.792;17.626;2023-02-14T04:24:39;2.58;;;1.70;;
60612;SDS011;46443;59.792;17.626;2023-02-14T04:27:05;3.00;;;1.80;;
60612;SDS011;46443;59.792;17.626;2023-02-14T04:29:37;2.78;;;1.70;;
60612;SDS011;46443;59.792;17.626;2023-02-14T04:32:05;2.38;;;1.65;;
60612;SDS011;46443;59.792;17.626;2023-02-14T04:34:31;3.00;;;1.83;;
60612;SDS011;46443;59.792;17.626;2023-02-14T04:36:57;2.45;;;1.75;;
60612;SDS011;46443;59.792;17.626;2023-02-14T04:39:23;3.35;;;1.58;;
60612;SDS011;46443;59.792;17.626;2023-02-14T04:41:49;4.95;;;2.13;;
60612;SDS011;46443;59.792;17.626;2023-02-14T04:44:15;3.80;;;1.42;;
60612;SDS011;46443;59.792;17.626;2023-02-14T04:46:42;3.03;;;1.67;;
60612;SDS011;46443;59.792;17.626;2023-02-14T04:49:08;3.42;;;1.70;;
60612;SDS011;46443;59.792;17.626;2023-02-14T04:51:34;2.78;;;1.75;;
60612;SDS011;46443;59.792;17.626;2023-02-14T04:54:00;2.65;;;1.70;;
60612;SDS011;46443;59.792;17.626;2023-02-14T04:56:26;2.58;;;1.73;;
60612;SDS011;46443;59.792;17.626;2023-02-14T04:58:52;2.78;;;1.52;;
60612;SDS011;46443;59.792;17.626;2023-02-14T05:01:19;2.97;;;1.60;;
60612;SDS011;46443;59.792;17.626;2023-02-14T05:03:46;3.08;;;1.80;;
60612;SDS011;46443;59.792;17.626;2023-02-14T05:06:12;3.08;;;1.83;;
60612;SDS011;46443;59.792;17.626;2023-02-14T05:08:38;2.42;;;1.70;;
60612;SDS011;46443;59.792;17.626;2023-02-14T05:11:04;2.97;;;1.80;;
60612;SDS011;46443;59.792;17.626;2023-02-14T05:13:30;2.97;;;1.60;;
60612;SDS011;46443;59.792;17.626;2023-02-14T05:15:56;2.50;;;1.67;;
60612;SDS011;46443;59.792;17.626;2023-02-14T05:18:22;2.50;;;1.50;;
60612;SDS011;46443;59.792;17.626;2023-02-14T05:20:49;2.45;;;1.63;;
60612;SDS011;46443;59.792;17.626;2023-02-14T05:23:15;5.05;;;2.08;;
60612;SDS011;46443;59.792;17.626;2023-02-14T05:25:42;4.10;;;1.80;;
60612;SDS011;46443;59.792;17.626;2023-02-14T05:28:08;1.83;;;1.58;;
60612;SDS011;46443;59.792;17.626;2023-02-14T05:30:34;3.15;;;1.77;;
60612;SDS011;46443;59.792;17.626;2023-02-14T05:33:01;3.70;;;1.77;;
60612;SDS011;46443;59.792;17.626;2023-02-14T05:35:27;2.03;;;1.42;;
60612;SDS011;46443;59.792;17.626;2023-02-14T05:37:54;6.22;;;1.80;;
60612;SDS011;46443;59.792;17.626;2023-02-14T05:40:20;2.67;;;1.80;;
60612;SDS011;46443;59.792;17.626;2023-02-14T05:42:46;3.30;;;2.10;;
60612;SDS011;46443;59.792;17.626;2023-02-14T05:45:12;3.03;;;1.80;;
60612;SDS011;46443;59.792;17.626;2023-02-14T05:47:38;3.38;;;1.98;;
60612;SDS011;46443;59.792;17.626;2023-02-14T05:50:05;3.05;;;1.60;;
60612;SDS011;46443;59.792;17.626;2023-02-14T05:52:31;3.95;;;2.00;;
60612;SDS011;46443;59.792;17.626;2023-02-14T05:54:57;1.90;;;1.50;;
60612;SDS011;46443;59.792;17.626;2023-02-14T05:57:24;3.05;;;1.80;;
60612;SDS011;46443;59.792;17.626;2023-02-14T05:59:50;4.07;;;1.80;;
60612;SDS011;46443;59.792;17.626;2023-02-14T06:02:16;3.13;;;1.85;;
60612;SDS011;46443;59.792;17.626;2023-02-14T06:04:42;2.38;;;1.60;;
60612;SDS011;46443;59.792;17.626;2023-02-14T06:07:08;2.47;;;1.50;;
60612;SDS011;46443;59.792;17.626;2023-02-14T06:09:34;3.45;;;1.90;;
60612;SDS011;46443;59.792;17.626;2023-02-14T06:12:00;2.65;;;1.50;;
60612;SDS011;46443;59.792;17.626;2023-02-14T06:14:26;3.28;;;1.90;;
60612;SDS011;46443;59.792;17.626;2023-02-14T06:16:52;3.58;;;1.75;;
60612;SDS011;46443;59.792;17.626;2023-02-14T06:19:18;4.30;;;2.00;;
60612;SDS011;46443;59.792;17.626;2023-02-14T06:21:45;2.70;;;1.90;;
60612;SDS011;46443;59.792;17.626;2023-02-14T06:24:11;2.85;;;1.60;;
60612;SDS011;46443;59.792;17.626;2023-02-14T06:26:37;3.47;;;1.90;;
60612;SDS011;46443;59.792;17.626;2023-02-14T06:29:03;3.00;;;1.90;;
60612;SDS011;46443;59.792;17.626;2023-02-14T06:31:30;3.20;;;1.92;;
60612;SDS011;46443;59.792;17.626;2023-02-14T06:33:56;2.38;;;1.80;;
60612;SDS011;46443;59.792;17.626;2023-02-14T06:36:22;2.80;;;1.60;;
60612;SDS011;46443;59.792;17.626;2023-02-14T06:38:48;3.03;;;1.60;;
60612;SDS011;46443;59.792;17.626;2023-02-14T06:41:14;2.47;;;1.63;;
60612;SDS011;46443;59.792;17.626;2023-02-14T06:43:41;3.72;;;1.90;;
60612;SDS011;46443;59.792;17.626;2023-02-14T06:46:08;3.22;;;1.80;;
60612;SDS011;46443;59.792;17.626;2023-02-14T06:48:34;3.03;;;1.60;;
60612;SDS011;46443;59.792;17.626;2023-02-14T06:51:00;3.05;;;1.90;;
60612;SDS011;46443;59.792;17.626;2023-02-14T06:53:26;1.90;;;1.48;;
60612;SDS011;46443;59.792;17.626;2023-02-14T06:55:52;2.45;;;1.73;;
60612;SDS011;46443;59.792;17.626;2023-02-14T06:58:19;1.98;;;1.60;;
60612;SDS011;46443;59.792;17.626;2023-02-14T07:00:45;3.10;;;1.83;;
60612;SDS011;46443;59.792;17.626;2023-02-14T07:03:11;2.70;;;1.70;;
60612;SDS011;46443;59.792;17.626;2023-02-14T07:05:38;3.22;;;1.92;;
60612;SDS011;46443;59.792;17.626;2023-02-14T07:08:04;2.30;;;1.65;;
60612;SDS011;46443;59.792;17.626;2023-02-14T07:10:31;3.88;;;1.83;;
60612;SDS011;46443;59.792;17.626;2023-02-14T07:12:58;3.28;;;2.00;;
60612;SDS011;46443;59.792;17.626;2023-02-14T07:15:24;3.97;;;2.13;;
60612;SDS011;46443;59.792;17.626;2023-02-14T07:17:50;2.88;;;1.83;;
60612;SDS011;46443;59.792;17.626;2023-02-14T07:20:17;3.53;;;2.13;;
60612;SDS011;46443;59.792;17.626;2023-02-14T07:22:43;2.78;;;1.95;;
60612;SDS011;46443;59.792;17.626;2023-02-14T07:25:10;4.05;;;2.08;;
60612;SDS011;46443;59.792;17.626;2023-02-14T07:27:36;3.22;;;2.05;;
60612;SDS011;46443;59.792;17.626;2023-02-14T07:30:03;3.15;;;1.85;;
60612;SDS011;46443;59.792;17.626;2023-02-14T07:32:29;4.82;;;1.95;;
60612;SDS011;46443;59.792;17.626;2023-02-14T07:34:55;2.92;;;1.80;;
60612;SDS011;46443;59.792;17.626;2023-02-14T07:37:21;3.97;;;2.20;;
60612;SDS011;46443;59.792;17.626;2023-02-14T07:39:47;4.05;;;2.10;;
60612;SDS011;46443;59.792;17.626;2023-02-14T07:42:13;3.38;;;1.90;;
60612;SDS011;46443;59.792;17.626;2023-02-14T07:44:39;4.35;;;2.28;;
60612;SDS011;46443;59.792;17.626;2023-02-14T07:47:06;4.22;;;2.10;;
60612;SDS011;46443;59.792;17.626;2023-02-14T07:49:32;3.35;;;2.10;;
60612;SDS011;46443;59.792;17.626;2023-02-14T07:51:58;4.38;;;2.25;;
60612;SDS011;46443;59.792;17.626;2023-02-14T07:54:25;3.97;;;2.10;;
60612;SDS011;46443;59.792;17.626;2023-02-14T07:56:51;4.65;;;2.10;;
60612;SDS011;46443;59.792;17.626;2023-02-14T07:59:17;3.45;;;2.00;;
60612;SDS011;46443;59.792;17.626;2023-02-14T08:01:43;2.90;;;1.90;;
60612;SDS011;46443;59.792;17.626;2023-02-14T08:04:09;4.15;;;2.05;;
60612;SDS011;46443;59.792;17.626;2023-02-14T08:06:38;3.17;;;1.92;;
60612;SDS011;46443;59.792;17.626;2023-02-14T08:09:04;3.38;;;2.10;;
60612;SDS011;46443;59.792;17.626;2023-02-14T08:11:30;3.03;;;1.92;;
60612;SDS011;46443;59.792;17.626;2023-02-14T08:14:15;2.88;;;1.85;;
60612;SDS011;46443;59.792;17.626;2023-02-14T08:16:41;3.30;;;2.00;;
60612;SDS011;46443;59.792;17.626;2023-02-14T08:19:07;3.35;;;2.40;;
60612;SDS011;46443;59.792;17.626;2023-02-14T08:21:33;3.13;;;1.90;;
60612;SDS011;46443;59.792;17.626;2023-02-14T08:23:59;3.53;;;2.08;;
60612;SDS011;46443;59.792;17.626;2023-02-14T08:26:25;5.28;;;2.13;;
60612;SDS011;46443;59.792;17.626;2023-02-14T08:28:51;3.45;;;1.88;;
60612;SDS011;46443;59.792;17.626;2023-02-14T08:31:22;3.55;;;2.10;;
60612;SDS011;46443;59.792;17.626;2023-02-14T08:33:48;3.28;;;2.03;;
60612;SDS011;46443;59.792;17.626;2023-02-14T08:36:14;3.47;;;2.15;;
60612;SDS011;46443;59.792;17.626;2023-02-14T08:38:42;5.18;;;2.40;;
60612;SDS011;46443;59.792;17.626;2023-02-14T08:41:09;3.47;;;1.90;;
60612;SDS011;46443;59.792;17.626;2023-02-14T08:43:35;3.45;;;2.30;;
60612;SDS011;46443;59.792;17.626;2023-02-14T08:46:02;5.63;;;2.28;;
60612;SDS011;46443;59.792;17.626;2023-02-14T08:48:28;5.13;;;2.20;;
60612;SDS011;46443;59.792;17.626;2023-02-14T08:50:54;4.47;;;2.17;;
60612;SDS011;46443;59.792;17.626;2023-02-14T08:53:20;4.80;;;2.47;;
60612;SDS011;46443;59.792;17.626;2023-02-14T08:55:46;5.00;;;2.67;;
60612;SDS011;46443;59.792;17.626;2023-02-14T08:58:13;3.38;;;2.35;;
60612;SDS011;46443;59.792;17.626;2023-02-14T09:00:39;4.78;;;2.58;;
60612;SDS011;46443;59.792;17.626;2023-02-14T09:03:05;4.20;;;2.30;;
60612;SDS011;46443;59.792;17.626;2023-02-14T09:05:32;3.90;;;2.13;;
60612;SDS011;46443;59.792;17.626;2023-02-14T09:07:58;4.15;;;2.63;;
60612;SDS011;46443;59.792;17.626;2023-02-14T09:10:24;4.75;;;2.30;;
60612;SDS011;46443;59.792;17.626;2023-02-14T09:12:52;3.80;;;2.30;;
60612;SDS011;46443;59.792;17.626;2023-02-14T09:15:18;3.83;;;1.83;;
60612;SDS011;46443;59.792;17.626;2023-02-14T09:17:44;3.43;;;2.13;;
60612;SDS011;46443;59.792;17.626;2023-02-14T09:20:12;4.37;;;2.47;;
60612;SDS011;46443;59.792;17.626;2023-02-14T09:22:38;3.53;;;2.20;;
60612;SDS011;46443;59.792;17.626;2023-02-14T09:25:05;4.43;;;2.20;;
60612;SDS011;46443;59.792;17.626;2023-02-14T09:27:31;5.97;;;2.27;;
60612;SDS011;46443;59.792;17.626;2023-02-14T09:29:57;4.17;;;2.10;;
60612;SDS011;46443;59.792;17.626;2023-02-14T09:32:23;5.07;;;2.20;;
60612;SDS011;46443;59.792;17.626;2023-02-14T09:34:50;3.23;;;1.80;;
60612;SDS011;46443;59.792;17.626;2023-02-14T09:37:35;3.97;;;1.90;;
60612;SDS011;46443;59.792;17.626;2023-02-14T09:40:19;4.03;;;2.20;;
60612;SDS011;46443;59.792;17.626;2023-02-14T09:45:13;4.77;;;2.30;;
60612;SDS011;46443;59.792;17.626;2023-02-14T09:50:28;4.70;;;2.23;;
60612;SDS011;46443;59.792;17.626;2023-02-14T09:52:57;4.33;;;2.00;;
60612;SDS011;46443;59.792;17.626;2023-02-14T09:55:26;4.17;;;2.03;;
60612;SDS011;46443;59.792;17.626;2023-02-14T09:57:58;3.67;;;2.10;;
60612;SDS011;46443;59.792;17.626;2023-02-14T10:05:53;3.27;;;2.10;;
60612;SDS011;46443;59.792;17.626;2023-02-14T10:10:59;4.90;;;2.33;;
60612;SDS011;46443;59.792;17.626;2023-02-14T10:13:30;3.83;;;2.00;;
60612;SDS011;46443;59.792;17.626;2023-02-14T10:16:01;4.28;;;2.40;;
60612;SDS011;46443;59.792;17.626;2023-02-14T10:20:55;3.30;;;2.10;;
60612;SDS011;46443;59.792;17.626;2023-02-14T10:23:32;5.00;;;2.60;;
60612;SDS011;46443;59.792;17.626;2023-02-14T10:26:00;3.40;;;2.00;;
60612;SDS011;46443;59.792;17.626;2023-02-14T10:28:34;6.00;;;2.40;;
60612;SDS011;46443;59.792;17.626;2023-02-14T10:31:13;3.07;;;2.03;;
60612;SDS011;46443;59.792;17.626;2023-02-14T10:33:41;3.60;;;1.90;;
60612;SDS011;46443;59.792;17.626;2023-02-14T10:36:15;4.27;;;2.10;;
60612;SDS011;46443;59.792;17.626;2023-02-14T10:51:44;4.07;;;2.28;;
60612;SDS011;46443;59.792;17.626;2023-02-14T10:54:21;4.57;;;2.00;;
60612;SDS011;46443;59.792;17.626;2023-02-14T11:01:54;3.20;;;2.00;;
60612;SDS011;46443;59.792;17.626;2023-02-14T11:04:21;8.63;;;2.50;;
60612;SDS011;46443;59.792;17.626;2023-02-14T11:06:48;3.50;;;1.90;;
60612;SDS011;46443;59.792;17.626;2023-02-14T11:09:15;6.20;;;2.20;;
60612;SDS011;46443;59.792;17.626;2023-02-14T11:11:52;4.73;;;2.37;;
60612;SDS011;46443;59.792;17.626;2023-02-14T11:16:54;2.67;;;1.90;;
60612;SDS011;46443;59.792;17.626;2023-02-14T11:21:54;4.47;;;2.40;;
60612;SDS011;46443;59.792;17.626;2023-02-14T11:27:03;7.17;;;2.60;;
60612;SDS011;46443;59.792;17.626;2023-02-14T11:29:41;5.60;;;2.70;;
60612;SDS011;46443;59.792;17.626;2023-02-14T11:32:11;3.90;;;2.70;;
60612;SDS011;46443;59.792;17.626;2023-02-14T11:34:38;4.63;;;2.67;;
60612;SDS011;46443;59.792;17.626;2023-02-14T11:37:15;6.20;;;2.90;;
60612;SDS011;46443;59.792;17.626;2023-02-14T11:39:41;7.37;;;3.33;;
60612;SDS011;46443;59.792;17.626;2023-02-14T11:42:08;5.97;;;2.80;;
60612;SDS011;46443;59.792;17.626;2023-02-14T11:44:36;8.87;;;2.77;;
60612;SDS011;46443;59.792;17.626;2023-02-14T11:49:52;6.07;;;2.90;;
60612;SDS011;46443;59.792;17.626;2023-02-14T11:52:19;5.73;;;2.73;;
60612;SDS011;46443;59.792;17.626;2023-02-14T11:54:50;6.37;;;2.77;;
60612;SDS011;46443;59.792;17.626;2023-02-14T11:57:21;6.03;;;2.80;;
60612;SDS011;46443;59.792;17.626;2023-02-14T11:59:49;4.90;;;2.60;;
60612;SDS011;46443;59.792;17.626;2023-02-14T12:02:37;5.03;;;2.60;;
60612;SDS011;46443;59.792;17.626;2023-02-14T12:07:31;4.70;;;2.73;;
60612;SDS011;46443;59.792;17.626;2023-02-14T12:12:30;3.40;;;2.20;;
60612;SDS011;46443;59.792;17.626;2023-02-14T12:15:58;5.93;;;2.53;;
60612;SDS011;46443;59.792;17.626;2023-02-14T12:18:08;8.10;;;2.90;;
60612;SDS011;46443;59.792;17.626;2023-02-14T12:23:25;5.70;;;2.77;;
60612;SDS011;46443;59.792;17.626;2023-02-14T12:25:57;5.50;;;2.80;;
60612;SDS011;46443;59.792;17.626;2023-02-14T12:28:27;4.17;;;2.30;;
60612;SDS011;46443;59.792;17.626;2023-02-14T12:30:54;5.25;;;2.40;;
60612;SDS011;46443;59.792;17.626;2023-02-14T12:33:21;6.03;;;3.13;;
60612;SDS011;46443;59.792;17.626;2023-02-14T12:46:17;6.60;;;2.43;;
60612;SDS011;46443;59.792;17.626;2023-02-14T12:53:57;5.87;;;2.40;;
60612;SDS011;46443;59.792;17.626;2023-02-14T13:01:40;4.50;;;2.20;;
60612;SDS011;46443;59.792;17.626;2023-02-14T13:04:27;9.57;;;2.63;;
60612;SDS011;46443;59.792;17.626;2023-02-14T13:07:02;4.00;;;2.37;;
60612;SDS011;46443;59.792;17.626;2023-02-14T13:14:49;5.23;;;2.30;;
60612;SDS011;46443;59.792;17.626;2023-02-14T13:17:28;3.40;;;1.80;;
60612;SDS011;46443;59.792;17.626;2023-02-14T13:22:43;4.17;;;1.80;;
60612;SDS011;46443;59.792;17.626;2023-02-14T13:27:42;2.57;;;1.67;;
60612;SDS011;46443;59.792;17.626;2023-02-14T13:30:18;3.33;;;1.97;;
60612;SDS011;46443;59.792;17.626;2023-02-14T13:32:47;4.63;;;2.33;;
60612;SDS011;46443;59.792;17.626;2023-02-14T13:35:17;2.80;;;1.70;;
60612;SDS011;46443;59.792;17.626;2023-02-14T13:37:45;4.07;;;1.85;;
60612;SDS011;46443;59.792;17.626;2023-02-14T13:40:15;2.95;;;1.80;;
60612;SDS011;46443;59.792;17.626;2023-02-14T13:51:00;3.70;;;1.80;;
60612;SDS011;46443;59.792;17.626;2023-02-14T13:53:34;3.50;;;1.70;;
60612;SDS011;46443;59.792;17.626;2023-02-14T13:56:29;3.10;;;2.00;;
60612;SDS011;46443;59.792;17.626;2023-02-14T13:58:50;2.80;;;1.70;;
60612;SDS011;46443;59.792;17.626;2023-02-14T14:03:53;3.60;;;1.90;;
60612;SDS011;46443;59.792;17.626;2023-02-14T14:06:20;2.80;;;1.50;;
60612;SDS011;46443;59.792;17.626;2023-02-14T14:08:50;3.57;;;1.60;;
60612;SDS011;46443;59.792;17.626;2023-02-14T14:26:35;3.10;;;1.73;;
60612;SDS011;46443;59.792;17.626;2023-02-14T14:29:02;4.17;;;2.00;;
60612;SDS011;46443;59.792;17.626;2023-02-14T14:31:34;3.00;;;2.00;;
60612;SDS011;46443;59.792;17.626;2023-02-14T14:34:01;4.17;;;2.03;;
60612;SDS011;46443;59.792;17.626;2023-02-14T14:36:27;5.07;;;1.80;;
60612;SDS011;46443;59.792;17.626;2023-02-14T14:38:53;3.67;;;1.83;;
60612;SDS011;46443;59.792;17.626;2023-02-14T14:41:24;3.57;;;1.80;;
60612;SDS011;46443;59.792;17.626;2023-02-14T14:43:51;3.60;;;1.57;;
60612;SDS011;46443;59.792;17.626;2023-02-14T14:46:18;2.90;;;1.60;;
60612;SDS011;46443;59.792;17.626;2023-02-14T14:48:47;2.60;;;1.80;;
60612;SDS011;46443;59.792;17.626;2023-02-14T14:51:16;5.20;;;1.67;;
60612;SDS011;46443;59.792;17.626;2023-02-14T14:53:45;2.83;;;1.60;;
60612;SDS011;46443;59.792;17.626;2023-02-14T14:56:22;3.53;;;1.90;;
60612;SDS011;46443;59.792;17.626;2023-02-14T14:58:49;4.30;;;1.70;;
60612;SDS011;46443;59.792;17.626;2023-02-14T15:01:29;4.77;;;1.67;;
60612;SDS011;46443;59.792;17.626;2023-02-14T15:06:34;1.87;;;1.60;;
60612;SDS011;46443;59.792;17.626;2023-02-14T15:09:09;2.77;;;1.53;;
60612;SDS011;46443;59.792;17.626;2023-02-14T15:11:35;2.80;;;1.90;;
60612;SDS011;46443;59.792;17.626;2023-02-14T15:14:21;3.90;;;2.07;;
60612;SDS011;46443;59.792;17.626;2023-02-14T15:16:49;3.63;;;2.10;;
60612;SDS011;46443;59.792;17.626;2023-02-14T15:19:36;3.23;;;1.90;;
60612;SDS011;46443;59.792;17.626;2023-02-14T15:22:06;3.75;;;2.00;;
60612;SDS011;46443;59.792;17.626;2023-02-14T15:24:32;3.47;;;1.80;;
60612;SDS011;46443;59.792;17.626;2023-02-14T15:27:00;5.53;;;2.10;;
60612;SDS011;46443;59.792;17.626;2023-02-14T15:29:28;3.77;;;2.07;;
60612;SDS011;46443;59.792;17.626;2023-02-14T15:31:55;3.17;;;2.00;;
60612;SDS011;46443;59.792;17.626;2023-02-14T15:34:26;2.60;;;1.70;;
60612;SDS011;46443;59.792;17.626;2023-02-14T15:36:53;3.00;;;1.73;;
60612;SDS011;46443;59.792;17.626;2023-02-14T15:39:27;4.05;;;1.92;;
60612;SDS011;46443;59.792;17.626;2023-02-14T15:41:54;3.40;;;2.10;;
60612;SDS011;46443;59.792;17.626;2023-02-14T15:44:21;4.47;;;2.13;;
60612;SDS011;46443;59.792;17.626;2023-02-14T15:46:51;4.57;;;2.07;;
60612;SDS011;46443;59.792;17.626;2023-02-14T15:49:19;3.43;;;2.40;;
60612;SDS011;46443;59.792;17.626;2023-02-14T15:51:46;3.30;;;1.70;;
60612;SDS011;46443;59.792;17.626;2023-02-14T15:54:34;2.80;;;1.80;;
60612;SDS011;46443;59.792;17.626;2023-02-14T15:57:01;5.27;;;2.20;;
60612;SDS011;46443;59.792;17.626;2023-02-14T15:59:28;4.20;;;2.03;;
60612;SDS011;46443;59.792;17.626;2023-02-14T16:04:39;4.27;;;1.97;;
60612;SDS011;46443;59.792;17.626;2023-02-14T16:07:15;4.80;;;2.03;;
60612;SDS011;46443;59.792;17.626;2023-02-14T16:09:45;3.55;;;1.92;;
60612;SDS011;46443;59.792;17.626;2023-02-14T16:12:30;3.33;;;1.90;;
60612;SDS011;46443;59.792;17.626;2023-02-14T16:17:35;5.70;;;2.00;;
60612;SDS011;46443;59.792;17.626;2023-02-14T16:20:25;3.80;;;2.17;;
60612;SDS011;46443;59.792;17.626;2023-02-14T16:22:48;7.13;;;2.53;;
60612;SDS011;46443;59.792;17.626;2023-02-14T16:25:15;3.80;;;2.07;;
60612;SDS011;46443;59.792;17.626;2023-02-14T16:27:41;5.90;;;2.30;;
60612;SDS011;46443;59.792;17.626;2023-02-14T16:30:13;4.93;;;2.10;;
60612;SDS011;46443;59.792;17.626;2023-02-14T16:32:40;2.90;;;2.00;;
60612;SDS011;46443;59.792;17.626;2023-02-14T16:35:09;2.87;;;2.00;;
60612;SDS011;46443;59.792;17.626;2023-02-14T16:40:02;3.13;;;1.87;;
60612;SDS011;46443;59.792;17.626;2023-02-14T16:42:28;5.23;;;2.17;;
60612;SDS011;46443;59.792;17.626;2023-02-14T16:44:56;5.17;;;1.90;;
60612;SDS011;46443;59.792;17.626;2023-02-14T16:47:22;4.63;;;2.10;;
60612;SDS011;46443;59.792;17.626;2023-02-14T16:49:51;4.10;;;2.17;;
60612;SDS011;46443;59.792;17.626;2023-02-14T16:52:21;5.00;;;2.20;;
60612;SDS011;46443;59.792;17.626;2023-02-14T16:54:47;3.92;;;2.17;;
60612;SDS011;46443;59.792;17.626;2023-02-14T16:57:22;6.30;;;2.50;;
60612;SDS011;46443;59.792;17.626;2023-02-14T16:59:48;4.53;;;2.20;;
60612;SDS011;46443;59.792;17.626;2023-02-14T17:02:14;4.20;;;2.28;;
60612;SDS011;46443;59.792;17.626;2023-02-14T17:04:42;8.87;;;2.50;;
60612;SDS011;46443;59.792;17.626;2023-02-14T17:07:09;9.43;;;2.50;;
60612;SDS011;46443;59.792;17.626;2023-02-14T17:09:40;5.20;;;2.40;;
60612;SDS011;46443;59.792;17.626;2023-02-14T17:12:10;5.30;;;2.60;;
60612;SDS011;46443;59.792;17.626;2023-02-14T17:14:40;4.18;;;2.47;;
60612;SDS011;46443;59.792;17.626;2023-02-14T17:17:08;5.22;;;2.80;;
60612;SDS011;46443;59.792;17.626;2023-02-14T17:19:34;4.78;;;2.60;;